createdAt,value
2017-08-21T00:00:48.383Z,92.38
2017-08-21T00:03:15.853Z,91.77
2017-08-21T00:05:43.292Z,92.48
2017-08-21T00:08:10.733Z,92.86
2017-08-21T00:10:38.205Z,91.96
2017-08-21T00:13:05.658Z,93.03
2017-08-21T00:15:33.141Z,93.82
2017-08-21T00:18:00.594Z,94.85
2017-08-21T00:20:28.045Z,95.56
2017-08-21T00:22:55.530Z,94.01
2017-08-21T00:25:22.977Z,93.68
2017-08-21T00:27:50.416Z,93.40
2017-08-21T00:30:17.886Z,93.96
2017-08-21T00:32:45.363Z,94.78
2017-08-21T00:35:12.977Z,96.37
2017-08-21T00:37:40.458Z,94.51
2017-08-21T00:40:07.900Z,94.74
2017-08-21T00:42:35.369Z,94.98
2017-08-21T00:45:02.829Z,95.16
2017-08-21T00:47:30.309Z,95.34
2017-08-21T00:49:57.776Z,95.89
2017-08-21T00:52:25.224Z,96.79
2017-08-21T00:54:52.702Z,96.22
2017-08-21T00:57:20.145Z,96.00
2017-08-21T00:59:47.588Z,96.32
2017-08-21T01:02:15.053Z,97.29
2017-08-21T01:04:42.505Z,98.34
2017-08-21T01:07:09.960Z,98.15
2017-08-21T01:09:37.430Z,98.18
2017-08-21T01:12:04.897Z,98.30
2017-08-21T01:14:32.365Z,98.60
2017-08-21T01:16:59.810Z,98.42
2017-08-21T01:19:27.278Z,97.95
2017-08-21T01:21:54.724Z,97.96
2017-08-21T01:24:22.196Z,97.20
2017-08-21T01:26:49.640Z,96.55
2017-08-21T01:29:17.085Z,96.87
2017-08-21T01:31:44.569Z,97.60
2017-08-21T01:34:12.009Z,98.07
2017-08-21T01:36:39.489Z,97.65
2017-08-21T01:39:06.934Z,97.21
2017-08-21T01:41:34.385Z,97.26
2017-08-21T01:44:01.853Z,97.06
2017-08-21T01:46:29.306Z,96.02
2017-08-21T01:48:56.757Z,96.92
2017-08-21T01:51:24.221Z,97.96
2017-08-21T01:53:51.701Z,97.35
2017-08-21T01:56:19.165Z,97.27
2017-08-21T01:58:46.621Z,97.96
2017-08-21T02:01:14.086Z,98.37
2017-08-21T02:03:41.557Z,98.44
2017-08-21T02:06:09.001Z,98.35
2017-08-21T02:08:36.469Z,97.64
2017-08-21T02:11:03.913Z,98.11
2017-08-21T02:13:31.364Z,97.81
2017-08-21T02:15:58.841Z,97.02
2017-08-21T02:18:26.309Z,96.20
2017-08-21T02:20:53.773Z,95.99
2017-08-21T02:23:21.217Z,95.64
2017-08-21T02:34:41.065Z,97.39
2017-08-21T02:37:08.521Z,97.10
2017-08-21T02:39:35.975Z,96.73
2017-08-21T02:42:03.454Z,96.63
2017-08-21T02:44:30.928Z,97.64
2017-08-21T02:46:58.373Z,96.62
2017-08-21T02:49:25.826Z,97.13
2017-08-21T02:51:53.302Z,97.17
2017-08-21T02:54:20.744Z,96.79
2017-08-21T02:56:48.193Z,96.73
2017-08-21T02:59:15.663Z,98.66
2017-08-21T03:01:43.247Z,96.89
2017-08-21T03:04:10.726Z,95.63
2017-08-21T03:06:38.168Z,91.40
2017-08-21T03:09:05.637Z,93.41
2017-08-21T03:11:33.114Z,94.25
2017-08-21T03:14:00.584Z,94.01
2017-08-21T03:16:28.034Z,94.24
2017-08-21T03:18:55.526Z,94.02
2017-08-21T03:21:22.979Z,92.85
2017-08-21T03:23:50.424Z,92.70
2017-08-21T03:26:17.898Z,91.31
2017-08-21T03:28:45.347Z,91.98
2017-08-21T03:31:12.813Z,91.81
2017-08-21T03:33:40.263Z,91.66
2017-08-21T03:36:07.741Z,91.32
2017-08-21T03:38:35.221Z,92.11
2017-08-21T03:41:02.669Z,91.61
2017-08-21T03:43:30.128Z,90.95
2017-08-21T03:45:57.581Z,92.21
2017-08-21T03:48:25.068Z,91.80
2017-08-21T03:50:52.536Z,91.82
2017-08-21T03:53:19.982Z,92.71
2017-08-21T03:55:47.454Z,93.42
2017-08-21T03:58:14.909Z,93.87
2017-08-21T04:00:42.388Z,94.07
2017-08-21T04:03:09.837Z,93.99
2017-08-21T04:05:37.293Z,94.30
2017-08-21T04:08:04.774Z,94.70
2017-08-21T04:10:32.217Z,95.07
2017-08-21T04:12:59.669Z,95.28
2017-08-21T04:15:27.145Z,94.77
2017-08-21T04:17:54.689Z,96.17
2017-08-21T04:20:22.152Z,95.34
2017-08-21T04:22:49.601Z,93.98
2017-08-21T04:25:17.067Z,96.18
2017-08-21T04:27:44.541Z,96.36
2017-08-21T04:30:11.992Z,97.51
2017-08-21T04:32:39.464Z,97.03
2017-08-21T04:35:06.929Z,97.10
2017-08-21T04:37:34.461Z,96.89
2017-08-21T04:40:01.926Z,96.13
2017-08-21T04:42:29.376Z,96.98
2017-08-21T04:44:57.584Z,95.24
2017-08-21T04:47:25.033Z,95.28
2017-08-21T04:49:52.470Z,92.77
2017-08-21T04:52:19.941Z,94.86
2017-08-21T04:54:47.390Z,94.32
2017-08-21T04:57:14.887Z,94.97
2017-08-21T04:59:42.343Z,94.40
2017-08-21T05:02:09.793Z,92.61
2017-08-21T05:04:37.257Z,93.27
2017-08-21T05:07:04.709Z,93.62
2017-08-21T05:09:32.177Z,91.28
2017-08-21T05:11:59.623Z,90.51
2017-08-21T05:14:27.097Z,94.19
2017-08-21T05:16:54.544Z,91.86
2017-08-21T05:19:22.001Z,92.57
2017-08-21T05:21:50.713Z,93.08
2017-08-21T05:24:18.162Z,93.27
2017-08-21T05:26:45.637Z,93.11
2017-08-21T05:29:13.086Z,90.16
2017-08-21T05:31:40.549Z,90.80
2017-08-21T05:34:08.012Z,89.02
2017-08-21T05:36:35.481Z,89.71
2017-08-21T05:39:02.937Z,89.11
2017-08-21T05:41:30.408Z,86.54
2017-08-21T05:43:57.868Z,86.81
2017-08-21T05:46:25.349Z,86.96
2017-08-21T05:48:52.788Z,85.02
2017-08-21T05:51:20.260Z,86.42
2017-08-21T05:53:47.705Z,86.63
2017-08-21T05:56:15.181Z,86.50
2017-08-21T05:58:42.633Z,88.39
2017-08-21T06:01:10.084Z,86.70
2017-08-21T06:03:37.556Z,86.95
2017-08-21T06:06:05.016Z,85.80
2017-08-21T06:08:32.476Z,84.94
2017-08-21T06:10:59.949Z,85.42
2017-08-21T06:13:27.397Z,83.49
2017-08-21T06:15:54.874Z,82.24
2017-08-21T06:18:22.343Z,82.17
2017-08-21T06:20:49.830Z,81.39
2017-08-21T06:23:17.314Z,79.19
2017-08-21T06:25:44.761Z,80.83
2017-08-21T06:28:12.216Z,80.07
2017-08-21T06:30:39.686Z,80.23
2017-08-21T06:33:07.133Z,80.39
2017-08-21T06:35:34.578Z,80.41
2017-08-21T06:38:02.050Z,80.76
2017-08-21T06:40:29.494Z,80.40
2017-08-21T06:42:56.968Z,79.99
2017-08-21T06:45:24.484Z,79.78
2017-08-21T06:47:51.965Z,80.35
2017-08-21T06:50:19.406Z,79.20
2017-08-21T06:52:46.861Z,79.28
2017-08-21T06:55:14.330Z,79.38
2017-08-21T06:57:41.778Z,80.08
2017-08-21T07:00:09.248Z,78.43
2017-08-21T07:02:36.940Z,78.65
2017-08-21T07:05:04.382Z,77.87
2017-08-21T07:07:31.853Z,77.36
2017-08-21T07:09:59.302Z,77.86
2017-08-21T07:12:26.767Z,76.76
2017-08-21T07:14:54.212Z,76.61
2017-08-21T07:17:21.687Z,76.75
2017-08-21T07:19:49.133Z,76.71
2017-08-21T07:22:16.601Z,77.22
2017-08-21T07:24:44.062Z,78.08
2017-08-21T07:27:11.508Z,77.57
2017-08-21T07:29:38.969Z,76.08
2017-08-21T07:32:06.413Z,74.62
2017-08-21T07:34:33.893Z,75.04
2017-08-21T07:37:01.335Z,75.81
2017-08-21T07:39:28.777Z,74.94
2017-08-21T07:41:56.244Z,74.55
2017-08-21T07:44:23.696Z,75.02
2017-08-21T07:46:51.190Z,75.77
2017-08-21T07:49:18.645Z,74.82
2017-08-21T07:51:46.089Z,73.65
2017-08-21T07:54:13.583Z,74.55
2017-08-21T07:56:41.058Z,73.77
2017-08-21T07:59:08.504Z,73.70
2017-08-21T08:01:35.975Z,73.06
2017-08-21T08:04:03.449Z,73.79
2017-08-21T08:06:30.913Z,73.01
2017-08-21T08:08:58.363Z,71.75
2017-08-21T08:11:25.808Z,72.95
2017-08-21T08:13:53.278Z,69.85
2017-08-21T08:16:20.745Z,69.38
2017-08-21T08:18:48.208Z,68.92
2017-08-21T08:21:15.685Z,68.69
2017-08-21T08:23:43.130Z,66.74
2017-08-21T08:26:10.576Z,65.74
2017-08-21T08:28:38.052Z,66.02
2017-08-21T08:31:05.524Z,65.98
2017-08-21T08:33:32.992Z,65.42
2017-08-21T08:36:00.454Z,64.62
2017-08-21T08:38:27.902Z,64.43
2017-08-21T08:40:55.574Z,64.49
2017-08-21T08:43:23.045Z,63.17
2017-08-21T08:45:50.490Z,63.52
2017-08-21T08:48:17.957Z,60.97
2017-08-21T08:50:45.437Z,62.31
2017-08-21T08:53:12.910Z,61.58
2017-08-21T08:55:40.366Z,60.32
2017-08-21T08:58:07.809Z,62.50
2017-08-21T09:00:35.279Z,62.04
2017-08-21T09:03:02.724Z,62.16
2017-08-21T09:05:30.254Z,61.96
2017-08-21T09:07:57.701Z,61.73
2017-08-21T09:10:25.200Z,60.58
2017-08-21T09:12:52.637Z,59.67
2017-08-21T09:15:20.084Z,57.40
2017-08-21T09:17:47.550Z,58.33
2017-08-21T09:20:15.020Z,58.66
2017-08-21T09:22:42.465Z,58.88
2017-08-21T09:25:09.909Z,57.23
2017-08-21T09:27:37.372Z,57.27
2017-08-21T09:30:04.830Z,59.05
2017-08-21T09:32:32.308Z,57.69
2017-08-21T09:34:59.757Z,58.43
2017-08-21T09:37:27.204Z,58.05
2017-08-21T09:39:54.682Z,57.64
2017-08-21T09:42:22.127Z,58.05
2017-08-21T09:44:49.596Z,55.72
2017-08-21T09:47:17.068Z,55.27
2017-08-21T09:49:44.534Z,54.40
2017-08-21T09:52:11.977Z,51.07
2017-08-21T09:54:39.453Z,50.13
2017-08-21T09:57:06.906Z,51.53
2017-08-21T09:59:34.378Z,50.32
2017-08-21T10:02:01.850Z,51.80
2017-08-21T10:04:29.302Z,51.72
2017-08-21T10:06:56.789Z,50.24
2017-08-21T10:09:24.259Z,49.85
2017-08-21T10:11:51.723Z,47.55
2017-08-21T10:14:19.202Z,48.68
2017-08-21T10:16:46.676Z,47.84
2017-08-21T10:19:14.163Z,49.57
2017-08-21T10:21:41.631Z,49.56
2017-08-21T10:24:09.077Z,47.66
2017-08-21T10:26:37.286Z,44.45
2017-08-21T10:29:04.738Z,47.98
2017-08-21T10:31:32.189Z,46.48
2017-08-21T10:33:59.658Z,47.49
2017-08-21T10:36:27.106Z,47.55
2017-08-21T10:38:54.566Z,47.62
2017-08-21T10:41:22.046Z,45.23
2017-08-21T10:43:49.501Z,45.26
2017-08-21T10:46:16.973Z,47.59
2017-08-21T10:48:44.445Z,47.65
2017-08-21T10:51:11.893Z,47.18
2017-08-21T10:53:39.357Z,45.55
2017-08-21T10:56:06.809Z,46.35
2017-08-21T10:58:34.281Z,46.45
2017-08-21T11:01:01.746Z,46.08
2017-08-21T11:03:29.207Z,44.10
2017-08-21T11:05:56.917Z,46.99
2017-08-21T11:08:24.379Z,47.04
2017-08-21T11:10:51.821Z,48.11
2017-08-21T11:13:19.299Z,46.13
2017-08-21T11:15:46.752Z,45.89
2017-08-21T11:18:14.221Z,44.29
2017-08-21T11:20:41.670Z,44.80
2017-08-21T11:23:09.144Z,44.18
2017-08-21T11:25:36.593Z,44.60
2017-08-21T11:28:04.036Z,44.45
2017-08-21T11:30:31.501Z,42.70
2017-08-21T11:32:58.981Z,44.76
2017-08-21T11:35:26.429Z,44.02
2017-08-21T11:37:53.900Z,42.77
2017-08-21T11:40:21.360Z,42.95
2017-08-21T11:42:48.801Z,39.25
2017-08-21T11:45:16.252Z,39.30
2017-08-21T11:47:43.725Z,39.37
2017-08-21T11:50:11.175Z,40.92
2017-08-21T11:52:38.658Z,40.62
2017-08-21T11:55:06.104Z,40.51
2017-08-21T11:57:33.574Z,40.20
2017-08-21T12:00:01.020Z,39.02
2017-08-21T12:02:28.481Z,37.52
2017-08-21T12:04:55.929Z,36.50
2017-08-21T12:07:23.374Z,37.12
2017-08-21T12:09:50.853Z,34.79
2017-08-21T12:12:18.309Z,34.76
2017-08-21T12:14:45.764Z,35.36
2017-08-21T12:17:13.232Z,35.00
2017-08-21T12:19:40.686Z,35.40
2017-08-21T12:22:08.155Z,33.91
2017-08-21T12:24:35.610Z,33.70
2017-08-21T12:27:03.082Z,35.64
2017-08-21T12:29:30.528Z,34.19
2017-08-21T12:31:57.973Z,32.55
2017-08-21T12:34:25.459Z,34.33
2017-08-21T12:36:52.921Z,34.03
2017-08-21T12:39:20.399Z,33.59
2017-08-21T12:41:47.842Z,32.70
2017-08-21T12:44:15.317Z,32.30
2017-08-21T12:46:42.766Z,33.08
2017-08-21T12:49:10.217Z,34.18
2017-08-21T12:51:37.693Z,35.53
2017-08-21T12:54:05.164Z,32.96
2017-08-21T12:56:32.661Z,32.32
2017-08-21T12:59:00.114Z,36.66
2017-08-21T13:01:27.584Z,33.35
2017-08-21T13:03:55.053Z,34.59
2017-08-21T13:06:22.528Z,33.26
2017-08-21T13:08:49.977Z,32.60
2017-08-21T13:11:17.448Z,33.99
2017-08-21T13:13:44.885Z,31.70
2017-08-21T13:16:12.353Z,30.30
2017-08-21T13:18:39.799Z,31.62
2017-08-21T13:21:07.267Z,33.07
2017-08-21T13:23:34.719Z,30.51
2017-08-21T13:26:02.184Z,28.74
2017-08-21T13:28:29.630Z,31.09
2017-08-21T13:30:57.081Z,30.37
2017-08-21T13:33:24.552Z,32.03
2017-08-21T13:35:52.010Z,33.95
2017-08-21T13:38:19.489Z,32.68
2017-08-21T13:40:46.941Z,34.89
2017-08-21T13:43:14.390Z,34.76
2017-08-21T13:45:41.862Z,35.64
2017-08-21T13:48:09.343Z,34.74
2017-08-21T13:50:36.814Z,32.33
2017-08-21T13:53:04.270Z,33.64
2017-08-21T13:55:31.728Z,35.69
2017-08-21T13:57:59.205Z,36.41
2017-08-21T14:00:26.648Z,33.58
2017-08-21T14:02:54.097Z,35.39
2017-08-21T14:05:21.567Z,34.77
2017-08-21T14:07:49.036Z,33.97
2017-08-21T14:10:16.513Z,34.78
2017-08-21T14:12:43.950Z,32.96
2017-08-21T14:15:11.401Z,32.95
2017-08-21T14:17:38.868Z,32.85
2017-08-21T14:20:06.326Z,32.02
2017-08-21T14:22:33.769Z,30.69
2017-08-21T14:25:01.243Z,31.73
2017-08-21T14:27:28.721Z,32.71
2017-08-21T14:29:56.170Z,32.91
2017-08-21T14:32:23.635Z,35.14
2017-08-21T14:34:51.109Z,33.31
2017-08-21T14:37:18.573Z,30.85
2017-08-21T14:39:46.037Z,32.67
2017-08-21T14:42:13.486Z,31.44
2017-08-21T14:44:40.925Z,34.06
2017-08-21T14:47:08.411Z,33.14
2017-08-21T14:49:35.860Z,34.08
2017-08-21T14:52:03.328Z,37.29
2017-08-21T14:54:30.769Z,32.10
2017-08-21T14:56:58.248Z,31.99
2017-08-21T14:59:25.713Z,32.35
2017-08-21T15:01:53.217Z,34.55
2017-08-21T15:04:20.703Z,31.80
2017-08-21T15:06:48.167Z,31.32
2017-08-21T15:09:15.647Z,32.93
2017-08-21T15:11:43.101Z,31.28
2017-08-21T15:14:10.624Z,32.71
2017-08-21T15:16:38.300Z,35.15
2017-08-21T15:19:05.786Z,34.82
2017-08-21T15:21:33.246Z,36.59
2017-08-21T15:24:00.721Z,37.01
2017-08-21T15:26:28.186Z,33.13
2017-08-21T15:28:55.656Z,31.99
2017-08-21T15:31:23.141Z,31.67
2017-08-21T15:33:50.621Z,32.42
2017-08-21T15:36:18.078Z,31.88
2017-08-21T15:38:45.556Z,31.79
2017-08-21T15:41:13.034Z,32.62
2017-08-21T15:43:40.547Z,32.79
2017-08-21T15:46:07.993Z,32.71
2017-08-21T15:48:35.474Z,34.20
2017-08-21T15:51:02.996Z,35.38
2017-08-21T15:53:30.453Z,33.44
2017-08-21T15:55:57.898Z,33.62
2017-08-21T15:58:25.369Z,33.20
2017-08-21T16:00:52.825Z,32.73
2017-08-21T16:03:20.267Z,32.94
2017-08-21T16:05:47.784Z,31.94
2017-08-21T16:08:15.237Z,32.14
2017-08-21T16:10:42.719Z,33.71
2017-08-21T16:13:10.190Z,32.85
2017-08-21T16:15:37.664Z,32.52
2017-08-21T16:18:05.116Z,32.62
2017-08-21T16:20:32.582Z,33.38
2017-08-21T16:23:00.039Z,32.67
2017-08-21T16:25:27.544Z,33.91
2017-08-21T16:27:54.989Z,34.42
2017-08-21T16:30:22.452Z,34.37
2017-08-21T16:32:49.891Z,34.44
2017-08-21T16:35:17.341Z,35.24
2017-08-21T16:37:44.805Z,36.15
2017-08-21T16:40:12.255Z,34.78
2017-08-21T16:42:39.709Z,34.66
2017-08-21T16:45:07.180Z,35.59
2017-08-21T16:47:34.664Z,35.43
2017-08-21T16:50:02.154Z,36.06
2017-08-21T16:52:29.774Z,37.19
2017-08-21T16:54:57.234Z,36.58
2017-08-21T16:57:24.713Z,36.96
2017-08-21T16:59:52.190Z,37.61
2017-08-21T17:02:19.665Z,38.87
2017-08-21T17:04:47.110Z,37.92
2017-08-21T17:07:14.556Z,39.15
2017-08-21T17:09:42.036Z,39.41
2017-08-21T17:12:09.493Z,41.14
2017-08-21T17:14:36.937Z,40.11
2017-08-21T17:17:04.415Z,41.48
2017-08-21T17:19:31.956Z,43.07
2017-08-21T17:21:59.433Z,43.51
2017-08-21T17:24:26.881Z,42.76
2017-08-21T17:26:56.173Z,43.98
2017-08-21T17:29:58.440Z,43.92
2017-08-21T17:32:28.084Z,44.49
2017-08-21T17:34:56.736Z,46.56
2017-08-21T17:37:25.409Z,46.40
2017-08-21T17:39:54.648Z,47.91
2017-08-21T17:42:24.256Z,47.97
2017-08-21T17:44:53.536Z,49.13
2017-08-21T17:47:21.122Z,49.93
2017-08-21T17:49:48.660Z,50.57
2017-08-21T17:52:16.332Z,50.92
2017-08-21T17:54:43.834Z,51.76
2017-08-21T17:57:13.196Z,51.78
2017-08-21T17:59:42.673Z,52.42
2017-08-21T18:02:12.019Z,52.27
2017-08-21T18:04:40.999Z,51.82
2017-08-21T18:07:11.047Z,53.53
2017-08-21T18:09:40.445Z,52.82
2017-08-21T18:12:10.091Z,53.91
2017-08-21T18:14:39.078Z,55.05
2017-08-21T18:17:07.938Z,53.11
2017-08-21T18:19:36.552Z,56.96
2017-08-21T18:22:04.064Z,58.20
2017-08-21T18:24:31.573Z,59.53
2017-08-21T18:26:59.022Z,57.33
2017-08-21T18:29:26.536Z,59.85
2017-08-21T18:31:54.200Z,60.13
2017-08-21T18:34:21.645Z,60.47
2017-08-21T18:36:49.128Z,59.71
2017-08-21T18:39:16.604Z,61.54
2017-08-21T18:41:44.051Z,61.26
2017-08-21T18:44:11.796Z,63.80
2017-08-21T18:46:39.246Z,58.28
2017-08-21T18:49:06.713Z,58.66
2017-08-21T18:51:34.199Z,64.27
2017-08-21T18:54:01.658Z,64.13
2017-08-21T18:56:29.357Z,65.00
2017-08-21T18:58:56.886Z,66.19
2017-08-21T19:01:24.386Z,65.56
2017-08-21T19:03:52.062Z,65.62
2017-08-21T19:06:20.498Z,61.23
2017-08-21T19:08:49.715Z,66.43
2017-08-21T19:11:17.274Z,63.06
2017-08-21T19:13:44.745Z,65.06
2017-08-21T19:16:13.164Z,69.00
2017-08-21T19:18:41.987Z,66.67
2017-08-21T19:21:09.867Z,66.89
2017-08-21T19:23:37.382Z,68.86
2017-08-21T19:26:05.265Z,66.27
2017-08-21T19:28:34.657Z,66.03
2017-08-21T19:31:03.417Z,69.26
2017-08-21T19:33:31.132Z,67.36
2017-08-21T19:35:58.864Z,69.76
2017-08-21T19:38:26.336Z,69.78
2017-08-21T19:40:54.405Z,69.59
2017-08-21T19:43:22.842Z,68.94
2017-08-21T19:45:50.581Z,68.51
2017-08-21T19:48:18.029Z,68.88
2017-08-21T19:50:45.544Z,68.96
2017-08-21T19:53:14.606Z,69.44
2017-08-21T19:55:43.261Z,68.48
2017-08-21T19:58:11.593Z,68.89
2017-08-21T20:00:41.084Z,69.79
2017-08-21T20:03:08.609Z,69.59
2017-08-21T20:05:36.077Z,69.09
2017-08-21T20:08:04.238Z,69.27
2017-08-21T20:10:32.788Z,69.77
2017-08-21T20:13:00.290Z,69.89
2017-08-21T20:15:28.067Z,70.96
2017-08-21T20:17:56.049Z,70.99
2017-08-21T20:20:24.770Z,71.42
2017-08-21T20:22:52.389Z,72.50
2017-08-21T20:25:20.056Z,72.16
2017-08-21T20:27:47.510Z,72.39
2017-08-21T20:30:14.993Z,71.29
2017-08-21T20:32:42.444Z,71.47
2017-08-21T20:35:09.891Z,71.38
2017-08-21T20:37:37.372Z,71.30
2017-08-21T20:40:05.406Z,71.00
2017-08-21T20:42:32.855Z,71.41
2017-08-21T20:45:01.070Z,72.09
2017-08-21T20:47:29.942Z,74.40
2017-08-21T20:49:57.516Z,73.30
2017-08-21T20:52:24.960Z,73.32
2017-08-21T20:54:52.434Z,74.24
2017-08-21T20:57:19.900Z,75.04
2017-08-21T20:59:47.372Z,75.90
2017-08-21T21:02:14.854Z,76.16
2017-08-21T21:04:42.329Z,76.98
2017-08-21T21:07:09.782Z,77.39
2017-08-21T21:09:37.451Z,77.22
2017-08-21T21:12:04.916Z,77.60
2017-08-21T21:14:32.965Z,78.12
2017-08-21T21:17:00.444Z,79.49
2017-08-21T21:19:27.906Z,79.75
2017-08-21T21:21:55.369Z,80.12
2017-08-21T21:24:23.367Z,80.65
2017-08-21T21:26:50.839Z,80.83
2017-08-21T21:29:18.293Z,81.98
2017-08-21T21:31:45.781Z,81.17
2017-08-21T21:34:13.565Z,79.59
2017-08-21T21:36:41.018Z,79.33
2017-08-21T21:39:08.488Z,80.05
2017-08-21T21:41:36.774Z,80.76
2017-08-21T21:44:04.335Z,82.31
2017-08-21T21:46:31.830Z,83.00
2017-08-21T21:48:59.277Z,81.16
2017-08-21T21:51:26.770Z,81.82
2017-08-21T21:53:54.238Z,81.22
2017-08-21T21:56:21.673Z,81.25
2017-08-21T21:58:49.120Z,81.59
2017-08-21T22:01:16.707Z,82.57
2017-08-21T22:03:44.314Z,83.31
2017-08-21T22:06:11.789Z,83.60
2017-08-21T22:08:39.241Z,84.62
2017-08-21T22:11:09.193Z,83.48
2017-08-21T22:13:38.684Z,83.63
2017-08-21T22:16:08.291Z,83.51
2017-08-21T22:18:37.709Z,83.32
2017-08-21T22:21:07.372Z,83.86
2017-08-21T22:23:34.935Z,85.05
2017-08-21T22:26:02.392Z,85.49
2017-08-21T22:28:29.861Z,85.39
2017-08-21T22:30:57.339Z,85.23
2017-08-21T22:33:24.790Z,85.94
2017-08-21T22:35:52.247Z,86.48
2017-08-21T22:38:19.717Z,86.87
2017-08-21T22:40:47.165Z,86.43
2017-08-21T22:43:14.634Z,87.01
2017-08-21T22:45:42.080Z,87.81
2017-08-21T22:48:09.526Z,89.13
2017-08-21T22:50:37.006Z,88.88
2017-08-21T22:53:04.453Z,88.44
2017-08-21T22:55:31.898Z,90.13
2017-08-21T22:57:59.368Z,91.03
2017-08-21T23:00:26.844Z,91.30
2017-08-21T23:02:54.317Z,91.09
2017-08-21T23:05:21.785Z,91.05
2017-08-21T23:07:49.225Z,91.23
2017-08-21T23:10:16.670Z,91.38
2017-08-21T23:12:44.138Z,91.75
2017-08-21T23:15:12.329Z,91.76
2017-08-21T23:17:39.776Z,91.70
2017-08-21T23:20:07.266Z,91.10
2017-08-21T23:22:34.704Z,91.17
2017-08-21T23:25:02.147Z,91.05
2017-08-21T23:27:29.612Z,90.37
2017-08-21T23:29:57.059Z,90.37
2017-08-21T23:32:24.511Z,92.17
2017-08-21T23:34:51.986Z,93.07
2017-08-21T23:37:19.437Z,93.15
2017-08-21T23:39:46.906Z,92.92
2017-08-21T23:42:14.352Z,93.00
2017-08-21T23:44:41.823Z,93.53
2017-08-21T23:47:09.272Z,93.36
2017-08-21T23:49:36.746Z,94.36
2017-08-21T23:52:04.201Z,94.07
2017-08-21T23:54:32.020Z,93.77
2017-08-21T23:56:59.502Z,93.87
2017-08-21T23:59:26.944Z,94.58
